Terminal Aerodrome Forecast
Issued by NWS Binghamton, NY

Home | Current Version | Previous Version | Text Only | Print | Product List | Glossary On
Versions: 1 2 3 4 5 6 7 8 9 10 11 12 13 14 15 16 17 18 19 20 21
000
FTUS41 KBGM 302320
TAFAVP
TAF
KAVP 302320Z 0100/0124 07007KT P6SM OVC015 PROB30 0113/0115 2SM
      -SHRA OVC003
     FM011500 08006KT P6SM OVC008 PROB30 0115/0117 2SM -SHRA OVC003
     FM011700 08006KT P6SM OVC008 PROB30 0117/0123 2SM -SHRA OVC003=

USA.gov is the U.S. government's official web portal to all federal, state and local government web resources and services.